createdAt,value
2022-12-27T00:01:23.040Z,307.94
2022-12-27T00:06:22.960Z,307.94
2022-12-27T00:11:22.884Z,309.95
2022-12-27T00:16:22.921Z,311.11
2022-12-27T00:21:22.758Z,312.87
2022-12-27T00:26:22.752Z,313.17
2022-12-27T00:31:22.632Z,314.06
2022-12-27T00:36:22.573Z,316.15
2022-12-27T00:41:22.502Z,317.67
2022-12-27T00:46:22.463Z,320.12
2022-12-27T00:51:22.352Z,321.98
2022-12-27T00:56:22.309Z,322.61
2022-12-27T01:01:22.406Z,326.10
2022-12-27T01:06:34.425Z,324.50
2022-12-27T01:11:26.830Z,327.71
2022-12-27T01:16:27.513Z,324.50
2022-12-27T01:21:26.684Z,324.50
2022-12-27T01:26:26.625Z,329.99
2022-12-27T01:31:26.643Z,333.97
2022-12-27T01:36:26.514Z,334.98
2022-12-27T01:41:26.448Z,340.48
2022-12-27T01:46:26.347Z,346.53
2022-12-27T01:51:26.315Z,350.56
2022-12-27T01:56:26.233Z,348.35
2022-12-27T02:01:26.250Z,351.30
2022-12-27T02:06:26.107Z,350.93
2022-12-27T02:11:26.043Z,348.35
2022-12-27T02:16:25.989Z,350.56
2022-12-27T02:21:25.908Z,351.67
2022-12-27T02:26:25.829Z,348.71
2022-12-27T02:31:25.763Z,347.98
2022-12-27T02:36:25.695Z,347.62
2022-12-27T02:41:25.696Z,350.19
2022-12-27T02:46:25.597Z,354.30
2022-12-27T02:51:25.490Z,358.12
2022-12-27T02:56:25.417Z,358.51
2022-12-27T03:01:25.453Z,358.90
2022-12-27T03:06:25.292Z,355.82
2022-12-27T03:11:25.354Z,350.93
2022-12-27T03:16:25.196Z,350.19
2022-12-27T03:21:25.126Z,350.56
2022-12-27T03:26:25.056Z,351.30
2022-12-27T03:31:24.982Z,353.92
2022-12-27T03:36:24.908Z,353.92
2022-12-27T03:41:24.850Z,354.68
2022-12-27T03:46:24.792Z,354.68
2022-12-27T03:51:24.781Z,352.79
2022-12-27T03:56:24.684Z,353.92
2022-12-27T04:01:24.650Z,353.17
2022-12-27T04:06:24.518Z,350.56
2022-12-27T04:11:24.462Z,350.93
2022-12-27T04:16:24.392Z,346.89
2022-12-27T04:21:24.356Z,347.26
2022-12-27T04:26:24.259Z,345.81
2022-12-27T04:31:24.239Z,344.01
2022-12-27T04:36:24.129Z,342.95
2022-12-27T04:41:24.062Z,343.66
2022-12-27T04:46:24.031Z,343.66
2022-12-27T04:51:23.959Z,340.48
2022-12-27T04:56:23.849Z,338.75
2022-12-27T05:01:23.959Z,338.06
2022-12-27T05:06:23.702Z,338.40
2022-12-27T05:11:23.679Z,335.66
2022-12-27T05:16:31.181Z,336.34
2022-12-27T05:21:23.562Z,337.71
2022-12-27T05:26:23.539Z,337.71
2022-12-27T05:31:23.472Z,335.66
2022-12-27T05:36:23.380Z,333.97
2022-12-27T05:41:23.317Z,334.31
2022-12-27T05:46:23.347Z,334.98
2022-12-27T05:51:23.148Z,337.71
2022-12-27T05:56:23.111Z,338.75
2022-12-27T06:01:23.114Z,336.68
2022-12-27T06:06:22.978Z,336.68
2022-12-27T06:11:22.890Z,337.03
2022-12-27T06:16:22.893Z,336.68
2022-12-27T06:21:22.758Z,334.98
2022-12-27T06:26:22.693Z,334.65
2022-12-27T06:31:22.756Z,334.31
2022-12-27T06:36:22.606Z,332.30
2022-12-27T06:41:22.486Z,335.32
2022-12-27T06:46:22.489Z,333.97
2022-12-27T06:51:22.381Z,333.97
2022-12-27T06:56:22.323Z,333.97
2022-12-27T07:01:22.337Z,335.66
2022-12-27T07:06:22.194Z,332.97
2022-12-27T07:11:22.090Z,331.64
2022-12-27T07:16:22.179Z,332.30
2022-12-27T07:21:21.993Z,332.63
2022-12-27T07:26:21.897Z,334.65
2022-12-27T07:31:21.881Z,338.75
2022-12-27T07:36:21.801Z,340.83
2022-12-27T07:41:21.698Z,342.95
2022-12-27T07:46:21.702Z,345.81
2022-12-27T07:51:22.278Z,345.45
2022-12-27T07:56:25.765Z,345.45
2022-12-27T08:01:22.550Z,346.89
2022-12-27T08:06:21.402Z,349.45
2022-12-27T08:11:21.334Z,346.17
2022-12-27T08:16:21.339Z,340.14
2022-12-27T08:21:21.357Z,342.59
2022-12-27T08:26:21.153Z,348.71
2022-12-27T08:31:21.093Z,348.71
2022-12-27T08:41:21.948Z,350.19
2022-12-27T08:46:21.634Z,339.09
2022-12-27T08:51:32.775Z,339.44
2022-12-27T08:56:21.744Z,331.97
2022-12-27T09:01:20.727Z,328.03
2022-12-27T09:06:20.640Z,316.15
2022-12-27T09:11:20.529Z,313.17
2022-12-27T09:16:20.555Z,306.51
2022-12-27T09:21:20.405Z,299.60
2022-12-27T09:26:20.350Z,295.07
2022-12-27T09:31:21.242Z,285.42
2022-12-27T09:36:20.220Z,281.79
2022-12-27T09:42:11.789Z,271.64
2022-12-27T09:46:21.143Z,265.55
2022-12-27T09:51:19.993Z,260.95
2022-12-27T09:56:19.934Z,254.74
2022-12-27T10:01:20.005Z,249.76
2022-12-27T10:06:19.802Z,248.08
2022-12-27T10:11:19.726Z,241.93
2022-12-27T10:16:20.248Z,237.26
2022-12-27T10:21:19.584Z,235.07
2022-12-27T10:26:20.252Z,237.60
2022-12-27T10:31:19.503Z,236.58
2022-12-27T10:36:19.390Z,234.24
2022-12-27T10:41:20.253Z,235.40
2022-12-27T10:46:19.340Z,234.07
2022-12-27T10:51:19.191Z,232.60
2022-12-27T10:56:19.330Z,229.54
2022-12-27T11:01:19.215Z,225.79
2022-12-27T11:06:19.001Z,222.91
2022-12-27T11:11:18.927Z,223.21
2022-12-27T11:16:18.942Z,221.57
2022-12-27T11:21:27.325Z,223.36
2022-12-27T11:26:19.736Z,224.72
2022-12-27T11:31:19.610Z,225.79
2022-12-27T11:36:18.610Z,221.57
2022-12-27T11:41:20.880Z,219.66
2022-12-27T11:46:19.530Z,219.81
2022-12-27T11:51:18.350Z,220.39
2022-12-27T11:56:18.329Z,225.18
2022-12-27T12:01:18.934Z,234.41
2022-12-27T12:06:18.189Z,244.06
2022-12-27T12:11:18.103Z,253.38
2022-12-27T12:16:18.099Z,259.12
2022-12-27T12:21:17.976Z,262.81
2022-12-27T12:26:17.913Z,264.07
2022-12-27T12:31:17.903Z,272.08
2022-12-27T12:36:17.768Z,278.71
2022-12-27T12:41:17.695Z,282.51
2022-12-27T12:46:17.682Z,286.65
2022-12-27T12:51:17.581Z,290.67
2022-12-27T12:56:17.522Z,298.25
2022-12-27T13:01:17.496Z,302.33
2022-12-27T13:06:17.391Z,306.23
2022-12-27T13:11:17.307Z,313.76
2022-12-27T13:16:17.291Z,317.67
2022-12-27T13:21:17.181Z,318.27
2022-12-27T13:26:17.120Z,317.67
2022-12-27T13:31:17.089Z,315.25
2022-12-27T13:36:17.654Z,314.06
2022-12-27T13:41:16.869Z,315.85
2022-12-27T13:46:16.917Z,319.81
2022-12-27T13:51:16.772Z,326.10
2022-12-27T13:56:51.996Z,327.71
2022-12-27T14:01:17.740Z,329.33
2022-12-27T14:06:16.562Z,328.68
2022-12-27T14:11:16.497Z,329.66
2022-12-27T14:16:16.537Z,332.63
2022-12-27T14:21:16.358Z,328.68
2022-12-27T14:26:16.312Z,330.64
2022-12-27T14:31:16.276Z,329.01
2022-12-27T14:36:16.164Z,326.10
2022-12-27T14:41:16.127Z,326.10
2022-12-27T14:46:16.113Z,329.66
2022-12-27T14:56:16.898Z,339.79
2022-12-27T15:01:15.923Z,341.54
2022-12-27T15:06:15.794Z,345.09
2022-12-27T15:11:15.724Z,347.98
2022-12-27T15:16:16.069Z,353.17
2022-12-27T15:21:15.582Z,352.05
2022-12-27T15:26:15.487Z,348.71
2022-12-27T15:31:15.469Z,346.53
2022-12-27T15:36:15.377Z,342.59
2022-12-27T15:41:15.302Z,343.66
2022-12-27T15:46:15.292Z,342.24
2022-12-27T15:51:15.194Z,336.34
2022-12-27T15:56:15.098Z,332.63
2022-12-27T16:01:17.903Z,327.38
2022-12-27T16:06:15.983Z,324.18
2022-12-27T16:11:14.945Z,326.74
2022-12-27T16:16:14.876Z,329.33
2022-12-27T16:21:14.755Z,332.63
2022-12-27T16:26:14.695Z,334.65
2022-12-27T16:31:14.667Z,338.75
2022-12-27T16:36:15.061Z,339.44
2022-12-27T16:41:14.513Z,345.45
2022-12-27T16:46:14.486Z,342.59
2022-12-27T16:51:14.380Z,346.17
2022-12-27T16:56:14.296Z,354.30
2022-12-27T17:01:14.335Z,358.51
2022-12-27T17:11:15.081Z,359.68
2022-12-27T17:16:14.070Z,357.74
2022-12-27T17:21:13.983Z,358.51
2022-12-27T17:26:13.880Z,360.46
2022-12-27T17:31:13.855Z,358.12
2022-12-27T17:36:13.748Z,354.68
2022-12-27T17:41:16.056Z,352.79
2022-12-27T17:46:13.666Z,352.79
2022-12-27T17:51:13.548Z,353.17
2022-12-27T17:56:13.472Z,348.71
2022-12-27T18:01:13.536Z,343.66
2022-12-27T18:06:13.345Z,339.44
2022-12-27T18:11:13.296Z,337.03
2022-12-27T18:16:13.262Z,337.71
2022-12-27T18:21:13.154Z,336.68
2022-12-27T18:26:13.759Z,338.06
2022-12-27T18:31:13.073Z,340.48
2022-12-27T18:36:12.936Z,344.37
2022-12-27T18:41:12.871Z,348.35
2022-12-27T18:46:12.865Z,353.17
2022-12-27T18:51:12.756Z,350.56
2022-12-27T18:56:12.652Z,350.19
2022-12-27T19:01:12.768Z,349.08
2022-12-27T19:06:12.545Z,347.26
2022-12-27T19:11:12.474Z,346.89
2022-12-27T19:16:12.456Z,346.89
2022-12-27T19:21:12.935Z,345.45
2022-12-27T19:26:12.272Z,347.62
2022-12-27T19:31:12.244Z,350.93
2022-12-27T19:36:12.137Z,349.45
2022-12-27T19:41:12.091Z,347.98
2022-12-27T19:46:12.058Z,352.42
2022-12-27T19:51:11.945Z,352.79
2022-12-27T19:56:11.885Z,351.67
2022-12-27T20:01:11.848Z,347.98
2022-12-27T20:06:22.983Z,346.17
2022-12-27T20:11:12.698Z,345.81
2022-12-27T20:16:11.592Z,347.26
2022-12-27T20:21:11.557Z,350.19
2022-12-27T20:26:11.455Z,355.82
2022-12-27T20:31:13.324Z,357.35
2022-12-27T20:36:11.333Z,353.92
2022-12-27T20:41:11.307Z,350.19
2022-12-27T20:46:11.229Z,346.53
2022-12-27T20:51:11.158Z,341.54
2022-12-27T20:56:11.061Z,335.32
2022-12-27T21:01:11.227Z,336.34
2022-12-27T21:06:11.072Z,336.34
2022-12-27T21:11:10.864Z,336.00
2022-12-27T21:16:10.801Z,333.97
2022-12-27T21:21:10.750Z,336.68
2022-12-27T21:26:10.941Z,337.71
2022-12-27T21:31:10.702Z,335.32
2022-12-27T21:36:10.559Z,334.65
2022-12-27T21:41:10.499Z,336.34
2022-12-27T21:46:10.406Z,331.97
2022-12-27T21:51:10.341Z,333.30
2022-12-27T21:56:10.332Z,333.97
2022-12-27T22:01:10.278Z,336.68
2022-12-27T22:06:10.149Z,334.98
2022-12-27T22:11:10.182Z,338.40
2022-12-27T22:16:10.042Z,335.66
2022-12-27T22:21:09.953Z,340.48
2022-12-27T22:26:09.905Z,340.14
2022-12-27T22:31:09.851Z,342.95
2022-12-27T22:36:09.718Z,345.81
2022-12-27T22:41:09.769Z,344.73
2022-12-27T22:46:09.605Z,345.81
2022-12-27T22:51:09.562Z,349.08
2022-12-27T22:56:09.475Z,348.35
2022-12-27T23:01:09.386Z,352.42
2022-12-27T23:06:09.329Z,347.26
2022-12-27T23:11:09.316Z,348.35
2022-12-27T23:16:09.224Z,353.17
2022-12-27T23:21:20.190Z,348.71
2022-12-27T23:26:10.059Z,349.82
2022-12-27T23:31:09.048Z,350.56
2022-12-27T23:36:08.927Z,347.62
2022-12-27T23:41:08.944Z,346.17
2022-12-27T23:46:08.848Z,347.26
2022-12-27T23:51:08.738Z,347.62
2022-12-27T23:56:08.742Z,346.17
